createdAt,value
2022-08-28T00:04:37.295Z,100136.06
2022-08-28T00:09:38.689Z,100142.69
2022-08-28T00:14:40.414Z,100139.00
2022-08-28T00:19:41.770Z,100138.19
2022-08-28T00:24:44.520Z,100151.50
2022-08-28T00:29:45.894Z,100157.00
2022-08-28T00:34:47.194Z,100160.75
2022-08-28T00:39:49.259Z,100166.84
2022-08-28T00:44:50.657Z,100171.59
2022-08-28T00:49:54.625Z,100172.44
2022-08-28T00:55:03.586Z,100163.63
2022-08-28T01:00:17.166Z,100168.59
2022-08-28T01:05:19.153Z,100168.38
2022-08-28T01:10:23.646Z,100157.72
2022-08-28T01:15:29.611Z,100160.19
2022-08-28T01:20:33.433Z,100159.78
2022-08-28T01:25:37.075Z,100153.09
2022-08-28T01:30:42.387Z,100154.09
2022-08-28T01:35:47.503Z,100154.88
2022-08-28T01:40:53.639Z,100152.19
2022-08-28T01:46:04.353Z,100153.34
2022-08-28T01:51:05.985Z,100148.56
2022-08-28T01:56:12.466Z,100148.84
2022-08-28T02:01:17.132Z,100143.75
2022-08-28T02:06:19.249Z,100150.38
2022-08-28T02:11:23.798Z,100151.28
2022-08-28T02:16:25.922Z,100154.25
2022-08-28T02:21:27.281Z,100154.91
2022-08-28T02:26:29.500Z,100159.94
2022-08-28T02:31:31.055Z,100166.13
2022-08-28T02:36:33.675Z,100162.94
2022-08-28T02:41:35.105Z,100167.34
2022-08-28T02:46:36.641Z,100149.19
2022-08-28T02:51:38.099Z,100155.94
2022-08-28T02:56:39.446Z,100168.66
2022-08-28T03:01:40.842Z,100166.13
2022-08-28T03:06:42.398Z,100171.63
2022-08-28T03:11:43.725Z,100164.03
2022-08-28T03:16:45.122Z,100159.34
2022-08-28T03:21:46.465Z,100164.63
2022-08-28T03:26:48.231Z,100165.28
2022-08-28T03:31:49.592Z,100173.91
2022-08-28T03:36:50.973Z,100167.91
2022-08-28T03:41:52.286Z,100175.94
2022-08-28T03:46:53.609Z,100176.97
2022-08-28T03:51:54.923Z,100177.84
2022-08-28T03:56:56.234Z,100177.22
2022-08-28T04:01:57.562Z,100176.44
2022-08-28T04:06:58.866Z,100169.06
2022-08-28T04:12:00.471Z,100178.00
2022-08-28T04:17:02.007Z,100192.81
2022-08-28T04:22:03.717Z,100188.44
2022-08-28T04:27:05.953Z,100196.28
2022-08-28T04:32:07.430Z,100188.94
2022-08-28T04:37:08.841Z,100197.31
2022-08-28T04:42:10.290Z,100198.91
2022-08-28T04:47:11.609Z,100204.78
2022-08-28T04:52:13.335Z,100200.03
2022-08-28T04:57:14.633Z,100202.81
2022-08-28T05:02:16.126Z,100197.13
2022-08-28T05:07:17.523Z,100207.94
2022-08-28T05:12:19.624Z,100203.84
2022-08-28T05:17:20.948Z,100214.66
2022-08-28T05:22:23.080Z,100216.31
2022-08-28T05:27:24.443Z,100223.03
2022-08-28T05:32:25.741Z,100231.34
2022-08-28T05:37:27.643Z,100244.59
2022-08-28T05:42:31.356Z,100255.41
2022-08-28T05:47:33.781Z,100267.91
2022-08-28T05:52:35.745Z,100267.34
2022-08-28T05:57:37.234Z,100269.84
2022-08-28T06:02:40.055Z,100265.66
2022-08-28T06:07:41.705Z,100261.63
2022-08-28T06:12:43.013Z,100262.34
2022-08-28T06:17:44.305Z,100260.09
2022-08-28T06:22:45.621Z,100250.84
2022-08-28T06:27:46.948Z,100257.31
2022-08-28T06:32:48.460Z,100268.63
2022-08-28T06:37:49.943Z,100273.47
2022-08-28T06:42:51.604Z,100281.69
2022-08-28T06:47:52.989Z,100280.50
2022-08-28T06:52:54.840Z,100294.19
2022-08-28T06:57:56.206Z,100295.28
2022-08-28T07:02:58.344Z,100284.66
2022-08-28T07:08:00.618Z,100289.16
2022-08-28T07:13:03.474Z,100292.00
2022-08-28T07:18:04.830Z,100291.03
2022-08-28T07:23:06.191Z,100302.00
2022-08-28T07:28:08.517Z,100293.00
2022-08-28T07:33:09.986Z,100294.72
2022-08-28T07:38:11.489Z,100300.44
2022-08-28T07:43:31.570Z,100296.41
2022-08-28T07:48:37.028Z,100305.44
2022-08-28T07:53:38.392Z,100304.25
2022-08-28T07:58:40.318Z,100319.22
2022-08-28T08:03:41.976Z,100310.06
2022-08-28T08:08:45.193Z,100311.13
2022-08-28T08:13:47.633Z,100320.69
2022-08-28T08:18:53.127Z,100324.38
2022-08-28T08:23:56.061Z,100322.38
2022-08-28T08:28:58.026Z,100329.59
2022-08-28T08:34:02.439Z,100325.03
2022-08-28T08:39:06.789Z,100331.69
2022-08-28T08:44:33.499Z,100331.88
2022-08-28T08:49:39.533Z,100331.19
2022-08-28T08:54:51.659Z,100339.91
2022-08-28T08:59:53.119Z,100330.31
2022-08-28T09:05:03.083Z,100322.75
2022-08-28T09:10:07.421Z,100341.72
2022-08-28T09:15:26.363Z,100318.91
2022-08-28T09:20:32.784Z,100335.03
2022-08-28T09:25:44.153Z,100334.38
2022-08-28T09:30:57.481Z,100333.19
2022-08-28T09:36:29.541Z,100332.25
2022-08-28T09:41:50.180Z,100336.84
2022-08-28T09:46:52.267Z,100333.38
2022-08-28T09:51:54.425Z,100333.78
2022-08-28T09:56:56.093Z,100333.66
2022-08-28T10:02:24.378Z,100339.78
2022-08-28T10:07:34.894Z,100350.41
2022-08-28T10:12:51.546Z,100335.22
2022-08-28T10:18:25.997Z,100328.63
2022-08-28T10:23:34.649Z,100331.59
2022-08-28T10:28:57.675Z,100328.22
2022-08-28T10:34:15.065Z,100323.88
2022-08-28T10:39:45.566Z,100314.75
2022-08-28T10:45:04.564Z,100306.97
2022-08-28T10:50:18.408Z,100318.59
2022-08-28T10:55:27.951Z,100327.09
2022-08-28T11:00:30.161Z,100309.59
2022-08-28T11:05:38.165Z,100305.31
2022-08-28T11:10:48.353Z,100303.09
2022-08-28T11:15:53.232Z,100303.19
2022-08-28T11:21:09.839Z,100302.19
2022-08-28T11:26:14.459Z,100308.94
2022-08-28T11:31:16.356Z,100302.19
2022-08-28T11:36:30.161Z,100300.34
2022-08-28T11:41:56.115Z,100292.06
2022-08-28T11:47:36.423Z,100292.38
2022-08-28T11:53:15.777Z,100289.84
2022-08-28T11:58:49.862Z,100289.97
2022-08-28T12:04:15.936Z,100290.81
2022-08-28T12:09:26.434Z,100290.78
2022-08-28T12:14:28.185Z,100276.72
2022-08-28T12:19:56.087Z,100274.81
2022-08-28T12:25:02.186Z,100265.00
2022-08-28T12:30:03.912Z,100271.28
2022-08-28T12:35:17.029Z,100257.38
2022-08-28T12:40:50.237Z,100259.50
2022-08-28T12:46:18.910Z,100256.81
2022-08-28T12:51:27.481Z,100242.34
2022-08-28T12:56:34.017Z,100251.00
2022-08-28T13:01:35.557Z,100242.22
2022-08-28T13:06:39.090Z,100243.47
2022-08-28T13:11:47.051Z,100248.81
2022-08-28T13:16:48.588Z,100238.06
2022-08-28T13:22:00.323Z,100232.81
2022-08-28T13:27:16.701Z,100226.44
2022-08-28T13:32:18.707Z,100224.66
2022-08-28T13:37:52.187Z,100219.41
2022-08-28T13:43:00.820Z,100220.00
2022-08-28T13:48:02.527Z,100211.59
2022-08-28T13:53:04.238Z,100212.41
2022-08-28T13:58:05.606Z,100206.88
2022-08-28T14:03:25.539Z,100207.50
2022-08-28T14:08:27.153Z,100208.19
2022-08-28T14:13:28.478Z,100213.22
2022-08-28T14:18:29.767Z,100219.06
2022-08-28T14:23:31.082Z,100217.13
2022-08-28T14:28:32.461Z,100209.50
2022-08-28T14:33:36.801Z,100205.84
2022-08-28T14:38:38.430Z,100205.63
2022-08-28T14:43:39.841Z,100214.88
2022-08-28T14:48:41.198Z,100201.63
2022-08-28T14:53:43.552Z,100199.09
2022-08-28T14:58:45.397Z,100200.38
2022-08-28T15:03:46.938Z,100198.66
2022-08-28T15:08:49.490Z,100206.56
2022-08-28T15:13:52.301Z,100198.56
2022-08-28T15:18:55.349Z,100190.06
2022-08-28T15:23:57.704Z,100200.44
2022-08-28T15:29:02.226Z,100200.53
2022-08-28T15:34:06.391Z,100189.25
2022-08-28T15:39:34.037Z,100179.38
2022-08-28T15:44:35.507Z,100180.66
2022-08-28T15:49:46.685Z,100186.34
2022-08-28T15:54:51.001Z,100190.59
2022-08-28T15:59:52.347Z,100187.16
2022-08-28T16:04:54.164Z,100190.34
2022-08-28T16:09:55.561Z,100187.72
2022-08-28T16:14:57.186Z,100194.22
2022-08-28T16:19:58.516Z,100188.63
2022-08-28T16:24:59.816Z,100194.06
2022-08-28T16:30:01.112Z,100201.09
2022-08-28T16:35:03.789Z,100194.19
2022-08-28T16:40:09.556Z,100194.66
2022-08-28T16:45:11.337Z,100187.47
2022-08-28T16:50:14.145Z,100189.91
2022-08-28T16:55:15.622Z,100187.97
2022-08-28T17:00:17.387Z,100189.34
2022-08-28T17:05:19.683Z,100181.91
2022-08-28T17:10:23.125Z,100184.22
2022-08-28T17:15:24.721Z,100184.75
2022-08-28T17:20:44.750Z,100184.66
2022-08-28T17:25:46.114Z,100182.84
2022-08-28T17:30:47.425Z,100189.88
2022-08-28T17:35:50.353Z,100188.63
2022-08-28T17:40:53.545Z,100193.78
2022-08-28T17:45:54.875Z,100201.00
2022-08-28T17:50:58.164Z,100210.91
2022-08-28T17:56:02.653Z,100214.38
2022-08-28T18:01:04.769Z,100211.66
2022-08-28T18:06:06.689Z,100220.56
2022-08-28T18:11:08.413Z,100226.03
2022-08-28T18:16:10.218Z,100218.59
2022-08-28T18:21:13.145Z,100239.72
2022-08-28T18:26:15.258Z,100245.00
2022-08-28T18:31:17.352Z,100244.66
2022-08-28T18:36:18.815Z,100249.91
2022-08-28T18:41:20.725Z,100246.78
2022-08-28T18:46:22.394Z,100253.09
2022-08-28T18:51:24.021Z,100260.41
2022-08-28T18:56:25.389Z,100281.53
2022-08-28T19:01:31.805Z,100297.84
2022-08-28T19:06:34.769Z,100304.72
2022-08-28T19:11:36.775Z,100303.91
2022-08-28T19:16:38.981Z,100312.47
2022-08-28T19:21:40.645Z,100308.69
2022-08-28T19:26:41.977Z,100325.59
2022-08-28T19:31:46.208Z,100322.44
2022-08-28T19:36:47.589Z,100339.13
2022-08-28T19:41:48.934Z,100342.59
2022-08-28T19:46:50.304Z,100347.59
2022-08-28T19:51:51.603Z,100351.94
2022-08-28T19:56:52.904Z,100359.88
2022-08-28T20:01:54.333Z,100359.41
2022-08-28T20:06:55.856Z,100367.94
2022-08-28T20:11:57.236Z,100378.53
2022-08-28T20:16:58.645Z,100382.69
2022-08-28T20:21:59.945Z,100377.41
2022-08-28T20:27:01.280Z,100391.16
2022-08-28T20:32:03.019Z,100377.31
2022-08-28T20:37:04.875Z,100379.34
2022-08-28T20:42:06.525Z,100382.88
2022-08-28T20:47:07.954Z,100392.94
2022-08-28T20:52:10.840Z,100397.44
2022-08-28T20:57:15.593Z,100399.06
2022-08-28T21:02:19.597Z,100407.19
2022-08-28T21:07:24.025Z,100411.84
2022-08-28T21:12:26.222Z,100415.47
2022-08-28T21:17:30.106Z,100421.53
2022-08-28T21:22:33.058Z,100433.03
2022-08-28T21:27:37.534Z,100435.03
2022-08-28T21:32:39.232Z,100442.72
2022-08-28T21:37:41.829Z,100443.72
2022-08-28T21:42:43.779Z,100448.47
2022-08-28T21:47:45.165Z,100436.03
2022-08-28T21:52:46.701Z,100440.59
2022-08-28T21:57:48.682Z,100451.75
2022-08-28T22:02:50.276Z,100450.97
2022-08-28T22:07:51.878Z,100452.38
2022-08-28T22:12:53.217Z,100450.25
2022-08-28T22:17:54.733Z,100450.56
2022-08-28T22:23:11.006Z,100459.91
2022-08-28T22:28:12.697Z,100461.47
2022-08-28T22:33:14.602Z,100451.22
2022-08-28T22:38:16.308Z,100447.03
2022-08-28T22:43:18.521Z,100453.91
2022-08-28T22:48:19.959Z,100462.22
2022-08-28T22:53:21.332Z,100455.66
2022-08-28T22:58:22.653Z,100457.41
2022-08-28T23:03:24.449Z,100454.34
2022-08-28T23:08:27.846Z,100463.47
2022-08-28T23:13:31.348Z,100462.16
2022-08-28T23:18:51.938Z,100468.97
2022-08-28T23:23:55.002Z,100470.34
2022-08-28T23:28:56.376Z,100459.78
2022-08-28T23:33:57.735Z,100458.00
2022-08-28T23:39:00.096Z,100459.03
2022-08-28T23:44:05.286Z,100458.81
2022-08-28T23:49:11.999Z,100463.66
2022-08-28T23:54:14.081Z,100455.06
2022-08-28T23:59:16.781Z,100443.31
